createdAt,value
2024-03-12T00:01:01.568Z,9.20
2024-03-12T00:03:28.987Z,9.20
2024-03-12T00:06:00.984Z,9.20
2024-03-12T00:08:31.334Z,9.20
2024-03-12T00:10:58.664Z,9.20
2024-03-12T00:13:27.610Z,9.10
2024-03-12T00:15:55.852Z,9.10
2024-03-12T00:18:26.983Z,9.20
2024-03-12T00:20:54.712Z,9.10
2024-03-12T00:23:23.444Z,9.10
2024-03-12T00:25:50.566Z,9.10
2024-03-12T00:28:17.763Z,9.10
2024-03-12T00:30:45.989Z,9.00
2024-03-12T00:33:13.122Z,9.00
2024-03-12T00:35:44.440Z,8.90
2024-03-12T00:38:12.018Z,9.00
2024-03-12T00:40:40.173Z,9.00
2024-03-12T00:43:08.218Z,9.00
2024-03-12T00:45:39.567Z,9.00
2024-03-12T00:48:11.707Z,9.00
2024-03-12T00:50:40.003Z,9.00
2024-03-12T00:53:08.661Z,9.00
2024-03-12T00:55:37.445Z,9.00
2024-03-12T00:58:11.144Z,9.00
2024-03-12T01:00:38.507Z,9.00
2024-03-12T01:03:09.336Z,9.00
2024-03-12T01:05:40.245Z,9.00
2024-03-12T01:08:08.657Z,9.00
2024-03-12T01:10:36.453Z,9.00
2024-03-12T01:13:07.375Z,9.00
2024-03-12T01:15:36.091Z,9.00
2024-03-12T01:18:04.562Z,9.00
2024-03-12T01:20:35.631Z,9.00
2024-03-12T01:23:03.195Z,9.00
2024-03-12T01:25:30.577Z,9.00
2024-03-12T01:27:57.930Z,9.00
2024-03-12T01:30:28.892Z,9.10
2024-03-12T01:32:59.136Z,9.10
2024-03-12T01:35:26.570Z,9.00
2024-03-12T01:37:54.232Z,9.00
2024-03-12T01:40:31.006Z,9.00
2024-03-12T01:43:10.738Z,9.10
2024-03-12T01:45:39.525Z,9.00
2024-03-12T01:48:09.515Z,9.10
2024-03-12T01:50:38.297Z,9.00
2024-03-12T01:53:07.036Z,9.00
2024-03-12T01:55:38.635Z,9.00
2024-03-12T01:58:06.155Z,9.00
2024-03-12T02:00:34.318Z,9.00
2024-03-12T02:03:01.838Z,9.00
2024-03-12T02:05:28.910Z,9.10
2024-03-12T02:07:56.159Z,9.00
2024-03-12T02:10:23.123Z,9.00
2024-03-12T02:12:50.214Z,9.00
2024-03-12T02:15:24.641Z,9.10
2024-03-12T02:17:54.392Z,9.00
2024-03-12T02:20:22.753Z,9.00
2024-03-12T02:22:55.319Z,9.00
2024-03-12T02:25:23.121Z,9.00
2024-03-12T02:27:51.385Z,9.00
2024-03-12T02:30:18.581Z,9.00
2024-03-12T02:32:48.279Z,9.00
2024-03-12T02:35:17.153Z,9.00
2024-03-12T02:37:44.364Z,9.00
2024-03-12T02:40:14.703Z,9.00
2024-03-12T02:42:43.045Z,9.00
2024-03-12T02:45:15.468Z,9.00
2024-03-12T02:47:43.484Z,9.00
2024-03-12T02:50:10.694Z,9.00
2024-03-12T02:52:38.837Z,9.00
2024-03-12T02:55:06.659Z,9.00
2024-03-12T02:57:34.093Z,9.00
2024-03-12T03:00:01.200Z,9.00
2024-03-12T03:02:29.561Z,9.00
2024-03-12T03:04:56.613Z,9.00
2024-03-12T03:07:26.138Z,9.00
2024-03-12T03:09:53.301Z,9.00
2024-03-12T03:12:20.963Z,9.00
2024-03-12T03:14:47.695Z,8.90
2024-03-12T03:17:14.513Z,9.00
2024-03-12T03:19:41.456Z,8.90
2024-03-12T03:22:10.786Z,8.90
2024-03-12T03:24:38.586Z,8.90
2024-03-12T03:27:05.676Z,8.90
2024-03-12T03:29:36.835Z,8.90
2024-03-12T03:32:07.726Z,8.90
2024-03-12T03:34:34.645Z,8.90
2024-03-12T03:37:01.774Z,8.90
2024-03-12T03:39:31.748Z,8.80
2024-03-12T03:41:58.656Z,8.90
2024-03-12T03:44:25.473Z,8.90
2024-03-12T03:46:52.541Z,8.80
2024-03-12T03:49:20.205Z,8.80
2024-03-12T03:51:48.216Z,8.90
2024-03-12T03:54:15.091Z,8.90
2024-03-12T03:56:41.903Z,8.90
2024-03-12T03:59:09.896Z,8.90
2024-03-12T04:01:36.733Z,8.80
2024-03-12T04:04:12.019Z,8.80
2024-03-12T04:06:39.806Z,8.80
2024-03-12T04:09:06.754Z,8.80
2024-03-12T04:11:34.940Z,8.80
2024-03-12T04:14:03.857Z,8.80
2024-03-12T04:16:33.972Z,8.80
2024-03-12T04:19:00.909Z,8.80
2024-03-12T04:21:27.987Z,8.70
2024-03-12T04:23:54.934Z,8.80
2024-03-12T04:26:21.801Z,8.80
2024-03-12T04:28:48.832Z,8.70
2024-03-12T04:31:15.748Z,8.80
2024-03-12T04:33:43.468Z,8.70
2024-03-12T04:36:15.072Z,8.70
2024-03-12T04:38:42.365Z,8.70
2024-03-12T04:41:10.543Z,8.70
2024-03-12T04:43:37.860Z,8.70
2024-03-12T04:46:05.102Z,8.70
2024-03-12T04:48:32.222Z,8.70
2024-03-12T04:50:59.248Z,8.70
2024-03-12T04:53:26.598Z,8.70
2024-03-12T04:55:53.510Z,8.70
2024-03-12T04:58:20.332Z,8.70
2024-03-12T05:00:47.328Z,8.70
2024-03-12T05:03:14.337Z,8.60
2024-03-12T05:05:41.706Z,8.60
2024-03-12T05:08:09.166Z,8.70
2024-03-12T05:10:39.233Z,8.70
2024-03-12T05:13:06.142Z,8.60
2024-03-12T05:15:33.129Z,8.60
2024-03-12T05:18:00.003Z,8.60
2024-03-12T05:20:26.954Z,8.60
2024-03-12T05:22:55.318Z,8.60
2024-03-12T05:25:28.025Z,8.60
2024-03-12T05:27:55.083Z,8.60
2024-03-12T05:30:24.211Z,8.60
2024-03-12T05:32:54.340Z,8.60
2024-03-12T05:35:23.418Z,8.60
2024-03-12T05:38:03.834Z,8.60
2024-03-12T05:40:41.461Z,8.60
2024-03-12T05:43:27.516Z,8.60
2024-03-12T05:46:13.116Z,8.50
2024-03-12T05:48:40.398Z,8.50
2024-03-12T05:51:08.767Z,8.50
2024-03-12T05:53:38.054Z,8.50
2024-03-12T05:56:08.642Z,8.50
2024-03-12T05:58:36.060Z,8.50
2024-03-12T06:01:04.543Z,8.50
2024-03-12T06:03:31.647Z,8.50
2024-03-12T06:05:58.816Z,8.50
2024-03-12T06:08:25.974Z,8.50
2024-03-12T06:10:52.926Z,8.50
2024-03-12T06:13:21.351Z,8.50
2024-03-12T06:15:48.323Z,8.50
2024-03-12T06:18:15.183Z,8.50
2024-03-12T06:20:46.974Z,8.50
2024-03-12T06:23:20.020Z,8.50
2024-03-12T06:25:47.590Z,8.50
2024-03-12T06:28:15.824Z,8.50
2024-03-12T06:30:44.448Z,8.50
2024-03-12T06:33:13.286Z,8.50
2024-03-12T06:35:42.756Z,8.50
2024-03-12T06:38:10.107Z,8.50
2024-03-12T06:40:37.051Z,8.50
2024-03-12T06:43:04.168Z,8.50
2024-03-12T06:45:32.689Z,8.50
2024-03-12T06:48:01.732Z,8.50
2024-03-12T06:50:28.689Z,8.50
2024-03-12T06:52:56.566Z,8.50
2024-03-12T06:55:27.467Z,8.50
2024-03-12T06:58:01.062Z,8.50
2024-03-12T07:00:33.795Z,8.60
2024-03-12T07:03:04.039Z,8.60
2024-03-12T07:05:34.371Z,8.60
2024-03-12T07:08:01.396Z,8.60
2024-03-12T07:10:28.356Z,8.60
2024-03-12T07:12:57.238Z,8.60
2024-03-12T07:15:26.067Z,8.60
2024-03-12T07:17:53.696Z,8.60
2024-03-12T07:20:22.915Z,8.60
2024-03-12T07:22:50.177Z,8.60
2024-03-12T07:25:17.931Z,8.70
2024-03-12T07:27:45.261Z,8.70
2024-03-12T07:30:12.433Z,8.70
2024-03-12T07:32:39.385Z,8.70
2024-03-12T07:35:07.838Z,8.70
2024-03-12T07:37:39.564Z,8.80
2024-03-12T07:40:11.024Z,8.80
2024-03-12T07:42:39.572Z,8.80
2024-03-12T07:45:07.272Z,8.80
2024-03-12T07:47:34.149Z,8.80
2024-03-12T07:50:02.593Z,8.80
2024-03-12T07:52:31.014Z,8.80
2024-03-12T07:54:59.165Z,8.80
2024-03-12T07:57:25.998Z,8.80
2024-03-12T07:59:54.338Z,8.80
2024-03-12T08:02:22.793Z,8.90
2024-03-12T08:04:49.620Z,8.80
2024-03-12T08:07:20.546Z,8.90
2024-03-12T08:09:50.661Z,8.90
2024-03-12T08:12:18.491Z,8.90
2024-03-12T08:14:45.831Z,8.90
2024-03-12T08:17:13.713Z,8.90
2024-03-12T08:19:49.405Z,8.90
2024-03-12T08:22:16.520Z,8.90
2024-03-12T08:24:45.197Z,8.90
2024-03-12T08:27:12.302Z,8.90
2024-03-12T08:29:39.185Z,8.90
2024-03-12T08:32:06.403Z,8.90
2024-03-12T08:34:33.354Z,9.00
2024-03-12T08:37:01.354Z,8.90
2024-03-12T08:39:29.648Z,8.90
2024-03-12T08:41:57.058Z,8.90
2024-03-12T08:44:24.810Z,9.00
2024-03-12T08:46:51.752Z,9.00
2024-03-12T08:49:18.706Z,9.00
2024-03-12T08:51:46.406Z,9.00
2024-03-12T08:54:15.170Z,9.00
2024-03-12T08:56:44.163Z,9.00
2024-03-12T08:59:15.079Z,9.00
2024-03-12T09:01:42.320Z,9.00
2024-03-12T09:04:09.618Z,9.00
2024-03-12T09:06:36.877Z,9.00
2024-03-12T09:09:03.986Z,9.00
2024-03-12T09:11:31.014Z,9.00
2024-03-12T09:13:57.998Z,9.00
2024-03-12T09:16:24.910Z,9.10
2024-03-12T09:18:51.996Z,9.10
2024-03-12T09:21:19.824Z,9.10
2024-03-12T09:23:56.347Z,9.10
2024-03-12T09:26:29.383Z,9.10
2024-03-12T09:28:56.726Z,9.10
2024-03-12T09:31:23.757Z,9.10
2024-03-12T09:33:53.169Z,9.20
2024-03-12T09:36:21.829Z,9.20
2024-03-12T09:38:51.679Z,9.20
2024-03-12T09:41:21.542Z,9.20
2024-03-12T09:43:48.495Z,9.20
2024-03-12T09:46:17.602Z,9.20
2024-03-12T09:48:46.401Z,9.20
2024-03-12T09:51:15.047Z,9.20
2024-03-12T09:53:43.476Z,9.20
2024-03-12T09:56:12.235Z,9.20
2024-03-12T09:58:39.694Z,9.30
2024-03-12T10:01:07.736Z,9.30
2024-03-12T10:03:38.578Z,9.30
2024-03-12T10:06:07.584Z,9.30
2024-03-12T10:08:36.050Z,9.40
2024-03-12T10:11:09.234Z,9.40
2024-03-12T10:13:39.700Z,9.40
2024-03-12T10:16:08.749Z,9.50
2024-03-12T10:18:36.305Z,9.50
2024-03-12T10:21:03.943Z,9.60
2024-03-12T10:23:33.211Z,9.60
2024-03-12T10:26:17.269Z,9.60
2024-03-12T10:28:51.835Z,9.60
2024-03-12T10:31:21.330Z,9.60
2024-03-12T10:33:51.530Z,9.60
2024-03-12T10:36:33.564Z,9.70
2024-03-12T10:39:01.002Z,9.60
2024-03-12T10:41:28.086Z,9.70
2024-03-12T10:44:12.211Z,9.70
2024-03-12T10:46:46.122Z,9.70
2024-03-12T10:49:14.435Z,9.70
2024-03-12T10:51:44.159Z,9.80
2024-03-12T10:54:17.681Z,9.80
2024-03-12T10:56:47.586Z,9.90
2024-03-12T10:59:16.114Z,9.90
2024-03-12T11:01:46.323Z,9.90
2024-03-12T11:04:14.801Z,10.00
2024-03-12T11:06:41.783Z,10.00
2024-03-12T11:09:12.916Z,10.00
2024-03-12T11:11:40.709Z,10.00
2024-03-12T11:14:08.831Z,10.10
2024-03-12T11:16:36.925Z,10.10
2024-03-12T11:19:25.799Z,10.10
2024-03-12T11:21:53.250Z,10.10
2024-03-12T11:24:31.215Z,10.20
2024-03-12T11:27:01.204Z,10.20
2024-03-12T11:30:05.670Z,10.30
2024-03-12T11:32:35.048Z,10.30
2024-03-12T11:35:29.327Z,10.40
2024-03-12T11:38:01.988Z,10.50
2024-03-12T11:40:38.866Z,10.50
2024-03-12T11:43:12.510Z,10.60
2024-03-12T11:45:49.616Z,10.70
2024-03-12T11:48:21.038Z,10.80
2024-03-12T11:50:59.129Z,10.90
2024-03-12T11:53:33.025Z,11.00
2024-03-12T11:56:11.871Z,11.20
2024-03-12T11:58:57.025Z,11.20
2024-03-12T12:01:32.248Z,11.30
2024-03-12T12:04:16.016Z,11.30
2024-03-12T12:06:46.179Z,11.40
2024-03-12T12:09:13.042Z,11.40
2024-03-12T12:11:40.688Z,11.50
2024-03-12T12:14:10.444Z,11.50
2024-03-12T12:16:38.139Z,11.50
2024-03-12T12:19:18.494Z,11.60
2024-03-12T12:21:50.277Z,11.60
2024-03-12T12:24:17.122Z,11.60
2024-03-12T12:26:48.057Z,11.60
2024-03-12T12:29:15.662Z,11.70
2024-03-12T12:31:43.168Z,11.70
2024-03-12T12:34:11.753Z,11.60
2024-03-12T12:36:44.294Z,11.60
2024-03-12T12:39:12.890Z,11.70
2024-03-12T12:41:44.997Z,11.70
2024-03-12T12:44:23.131Z,11.70
2024-03-12T12:46:53.481Z,11.80
2024-03-12T12:49:22.290Z,11.80
2024-03-12T12:51:51.284Z,11.80
2024-03-12T12:54:22.884Z,12.00
2024-03-12T12:56:51.276Z,12.00
2024-03-12T12:59:21.284Z,12.00
2024-03-12T13:01:49.344Z,12.10
2024-03-12T13:04:28.310Z,12.10
2024-03-12T13:06:57.307Z,12.10
2024-03-12T13:09:37.064Z,12.10
2024-03-12T13:12:09.224Z,12.20
2024-03-12T13:14:39.412Z,12.20
2024-03-12T13:17:10.000Z,12.30
2024-03-12T13:19:37.483Z,12.30
2024-03-12T13:22:10.622Z,12.40
2024-03-12T13:24:45.104Z,12.40
2024-03-12T13:27:12.530Z,12.40
2024-03-12T13:29:39.544Z,12.50
2024-03-12T13:32:06.728Z,12.50
2024-03-12T13:34:33.715Z,12.50
2024-03-12T13:37:00.812Z,12.60
2024-03-12T13:39:27.649Z,12.60
2024-03-12T13:41:55.483Z,12.70
2024-03-12T13:44:22.806Z,12.70
2024-03-12T13:46:49.666Z,12.70
2024-03-12T13:49:21.256Z,12.80
2024-03-12T13:51:48.947Z,12.70
2024-03-12T13:54:16.382Z,12.70
2024-03-12T13:56:43.674Z,12.70
2024-03-12T13:59:13.615Z,12.70
2024-03-12T14:01:41.983Z,12.60
2024-03-12T14:04:12.817Z,12.60
2024-03-12T14:06:40.166Z,12.50
2024-03-12T14:09:12.909Z,12.50
2024-03-12T14:11:40.106Z,12.40
2024-03-12T14:14:09.524Z,12.40
2024-03-12T14:16:36.668Z,12.40
2024-03-12T14:19:04.798Z,12.40
2024-03-12T14:21:34.088Z,12.40
2024-03-12T14:24:02.854Z,12.40
2024-03-12T14:26:30.310Z,12.40
2024-03-12T14:28:57.133Z,12.40
2024-03-12T14:31:24.194Z,12.40
2024-03-12T14:33:51.186Z,12.40
2024-03-12T14:36:18.213Z,12.50
2024-03-12T14:38:45.135Z,12.50
2024-03-12T14:41:13.013Z,12.50
2024-03-12T14:43:39.961Z,12.50
2024-03-12T14:46:07.740Z,12.50
2024-03-12T14:48:35.324Z,12.50
2024-03-12T14:51:02.417Z,12.60
2024-03-12T14:53:29.346Z,12.60
2024-03-12T14:55:57.479Z,12.60
2024-03-12T14:58:24.300Z,12.60
2024-03-12T15:00:51.267Z,12.70
2024-03-12T15:03:20.073Z,12.70
2024-03-12T15:05:54.943Z,12.70
2024-03-12T15:08:22.098Z,12.70
2024-03-12T15:10:48.936Z,12.70
2024-03-12T15:13:16.096Z,12.70
2024-03-12T15:15:43.092Z,12.70
2024-03-12T15:18:10.808Z,12.70
2024-03-12T15:20:37.615Z,12.70
2024-03-12T15:23:05.367Z,12.70
2024-03-12T15:25:32.490Z,12.70
2024-03-12T15:28:00.697Z,12.70
2024-03-12T15:30:29.183Z,12.60
2024-03-12T15:32:56.306Z,12.60
2024-03-12T15:35:24.666Z,12.60
2024-03-12T15:37:51.747Z,12.60
2024-03-12T15:40:20.608Z,12.60
2024-03-12T15:42:47.569Z,12.60
2024-03-12T15:45:16.933Z,12.50
2024-03-12T15:47:44.993Z,12.50
2024-03-12T15:50:17.199Z,12.50
2024-03-12T15:52:44.541Z,12.50
2024-03-12T15:55:13.402Z,12.40
2024-03-12T15:57:41.755Z,12.40
2024-03-12T16:00:09.904Z,12.30
2024-03-12T16:02:36.923Z,12.30
2024-03-12T16:05:06.465Z,12.30
2024-03-12T16:07:36.409Z,12.20
2024-03-12T16:10:05.325Z,12.20
2024-03-12T16:12:32.478Z,12.10
2024-03-12T16:15:02.612Z,12.10
2024-03-12T16:17:31.901Z,12.00
2024-03-12T16:19:58.837Z,12.00
2024-03-12T16:22:25.814Z,12.00
2024-03-12T16:24:52.801Z,11.90
2024-03-12T16:27:19.666Z,11.90
2024-03-12T16:29:47.651Z,11.80
2024-03-12T16:32:14.555Z,11.80
2024-03-12T16:34:41.379Z,11.80
2024-03-12T16:37:09.900Z,11.70
2024-03-12T16:39:39.633Z,11.70
2024-03-12T16:42:06.862Z,11.70
2024-03-12T16:44:33.688Z,11.60
2024-03-12T16:47:05.676Z,11.60
2024-03-12T16:49:33.375Z,11.60
2024-03-12T16:52:02.080Z,11.60
2024-03-12T16:54:31.807Z,11.60
2024-03-12T16:57:00.280Z,11.60
2024-03-12T16:59:27.436Z,11.50
2024-03-12T17:01:54.623Z,11.50
2024-03-12T17:04:21.913Z,11.40
2024-03-12T17:06:57.614Z,11.40
2024-03-12T17:09:25.388Z,11.40
2024-03-12T17:11:52.571Z,11.40
2024-03-12T17:14:27.492Z,11.40
2024-03-12T17:17:06.302Z,11.40
2024-03-12T17:19:35.488Z,11.40
2024-03-12T17:22:03.164Z,11.30
2024-03-12T17:24:31.820Z,11.30
2024-03-12T17:26:58.918Z,11.30
2024-03-12T17:29:26.765Z,11.30
2024-03-12T17:31:55.001Z,11.20
2024-03-12T17:34:22.700Z,11.20
2024-03-12T17:36:54.971Z,11.20
2024-03-12T17:39:22.234Z,11.20
2024-03-12T17:41:49.449Z,11.20
2024-03-12T17:44:17.842Z,11.20
2024-03-12T17:46:45.790Z,11.20
2024-03-12T17:49:17.594Z,11.10
2024-03-12T17:51:46.337Z,11.10
2024-03-12T17:54:17.092Z,11.10
2024-03-12T17:56:48.214Z,11.10
2024-03-12T17:59:19.840Z,11.10
2024-03-12T18:01:47.664Z,11.10
2024-03-12T18:04:15.350Z,11.10
2024-03-12T18:06:43.760Z,11.10
2024-03-12T18:09:21.263Z,11.00
2024-03-12T18:11:48.281Z,11.00
2024-03-12T18:14:15.875Z,11.00
2024-03-12T18:16:42.689Z,11.00
2024-03-12T18:19:09.610Z,11.00
2024-03-12T18:21:38.040Z,10.90
2024-03-12T18:24:05.619Z,10.90
2024-03-12T18:26:34.054Z,10.90
2024-03-12T18:29:04.030Z,10.90
2024-03-12T18:31:31.077Z,10.90
2024-03-12T18:33:58.033Z,10.90
2024-03-12T18:36:25.570Z,10.90
2024-03-12T18:38:52.521Z,10.80
2024-03-12T18:41:19.323Z,10.80
2024-03-12T18:43:46.133Z,10.80
2024-03-12T18:46:13.106Z,10.80
2024-03-12T18:48:40.218Z,10.80
2024-03-12T18:51:07.688Z,10.80
2024-03-12T18:53:35.504Z,10.80
2024-03-12T18:56:04.866Z,10.80
2024-03-12T18:58:31.994Z,10.80
2024-03-12T19:00:59.751Z,10.70
2024-03-12T19:03:42.338Z,10.80
2024-03-12T19:06:18.972Z,10.80
2024-03-12T19:08:52.991Z,10.70
2024-03-12T19:11:20.842Z,10.70
2024-03-12T19:13:48.372Z,10.70
2024-03-12T19:16:16.312Z,10.70
2024-03-12T19:18:49.429Z,10.60
2024-03-12T19:21:22.328Z,10.60
2024-03-12T19:23:52.417Z,10.60
2024-03-12T19:26:20.130Z,10.60
2024-03-12T19:28:47.206Z,10.60
2024-03-12T19:31:15.389Z,10.60
2024-03-12T19:33:44.859Z,10.60
2024-03-12T19:36:16.258Z,10.60
2024-03-12T19:38:43.555Z,10.50
2024-03-12T19:41:13.413Z,10.50
2024-03-12T19:43:40.943Z,10.70
2024-03-12T19:46:09.030Z,10.50
2024-03-12T19:48:37.037Z,10.50
2024-03-12T19:51:05.332Z,10.50
2024-03-12T19:53:34.329Z,10.50
2024-03-12T19:56:01.733Z,10.50
2024-03-12T19:58:29.496Z,10.50
2024-03-12T20:00:56.459Z,10.50
2024-03-12T20:03:26.499Z,10.50
2024-03-12T20:05:56.310Z,10.50
2024-03-12T20:08:24.107Z,10.50
2024-03-12T20:10:51.099Z,10.50
2024-03-12T20:13:18.239Z,10.50
2024-03-12T20:15:47.174Z,10.50
2024-03-12T20:18:15.428Z,10.40
2024-03-12T20:20:44.361Z,10.50
2024-03-12T20:23:11.805Z,10.50
2024-03-12T20:25:39.209Z,10.50
2024-03-12T20:28:10.515Z,10.50
2024-03-12T20:30:39.694Z,10.50
2024-03-12T20:33:09.560Z,10.50
2024-03-12T20:35:38.835Z,10.50
2024-03-12T20:38:09.481Z,10.50
2024-03-12T20:40:36.476Z,10.50
2024-03-12T20:43:03.699Z,10.40
2024-03-12T20:45:30.929Z,10.40
2024-03-12T20:47:59.217Z,10.40
2024-03-12T20:50:26.493Z,10.40
2024-03-12T20:52:53.286Z,10.40
2024-03-12T20:55:22.068Z,10.40
2024-03-12T20:57:49.578Z,10.40
2024-03-12T21:00:18.597Z,10.40
2024-03-12T21:02:49.560Z,10.40
2024-03-12T21:05:16.960Z,10.40
2024-03-12T21:07:44.794Z,10.40
2024-03-12T21:10:12.792Z,10.40
2024-03-12T21:12:40.377Z,10.40
2024-03-12T21:15:08.192Z,10.40
2024-03-12T21:17:35.730Z,10.40
2024-03-12T21:20:12.602Z,10.40
2024-03-12T21:22:39.617Z,10.40
2024-03-12T21:25:08.017Z,10.40
2024-03-12T21:27:35.051Z,10.40
2024-03-12T21:30:06.450Z,10.40
2024-03-12T21:32:34.249Z,10.40
2024-03-12T21:35:01.203Z,10.40
2024-03-12T21:37:27.995Z,10.40
2024-03-12T21:39:54.883Z,10.40
2024-03-12T21:42:23.065Z,10.40
2024-03-12T21:44:52.753Z,10.30
2024-03-12T21:47:20.378Z,10.40
2024-03-12T21:49:47.551Z,10.40
2024-03-12T21:52:16.974Z,10.40
2024-03-12T21:54:45.518Z,10.40
2024-03-12T21:57:12.369Z,10.40
2024-03-12T21:59:40.837Z,10.40
2024-03-12T22:02:07.813Z,10.40
2024-03-12T22:04:34.784Z,10.40
2024-03-12T22:07:03.396Z,10.40
2024-03-12T22:09:32.184Z,10.30
2024-03-12T22:11:59.217Z,10.40
2024-03-12T22:14:26.156Z,10.40
2024-03-12T22:16:53.022Z,10.30
2024-03-12T22:19:20.897Z,10.40
2024-03-12T22:21:49.131Z,10.40
2024-03-12T22:24:23.719Z,10.40
2024-03-12T22:26:54.335Z,10.40
2024-03-12T22:29:21.286Z,10.40
2024-03-12T22:31:49.638Z,10.40
2024-03-12T22:34:16.756Z,10.40
2024-03-12T22:36:45.218Z,10.40
2024-03-12T22:39:14.500Z,10.40
2024-03-12T22:41:48.819Z,10.40
2024-03-12T22:44:16.711Z,10.40
2024-03-12T22:46:45.522Z,10.40
2024-03-12T22:49:13.716Z,10.40
2024-03-12T22:51:41.654Z,10.40
2024-03-12T22:54:10.694Z,10.40
2024-03-12T22:56:37.819Z,10.40
2024-03-12T22:59:05.351Z,10.40
2024-03-12T23:01:36.821Z,10.40
2024-03-12T23:04:05.861Z,10.40
2024-03-12T23:06:32.960Z,10.40
2024-03-12T23:09:00.793Z,10.40
2024-03-12T23:11:28.557Z,10.40
2024-03-12T23:13:55.406Z,10.40
2024-03-12T23:16:22.374Z,10.50
2024-03-12T23:18:54.045Z,10.50
2024-03-12T23:21:21.682Z,10.50
2024-03-12T23:23:48.553Z,10.50
2024-03-12T23:26:18.197Z,10.40
2024-03-12T23:28:45.505Z,10.40
2024-03-12T23:31:12.592Z,10.40
2024-03-12T23:33:40.382Z,10.50
2024-03-12T23:36:08.527Z,10.40
2024-03-12T23:38:36.287Z,10.50
2024-03-12T23:41:03.479Z,10.50
2024-03-12T23:43:31.859Z,10.50
2024-03-12T23:45:58.913Z,10.50
2024-03-12T23:48:25.850Z,10.50
2024-03-12T23:50:54.823Z,10.50
2024-03-12T23:53:21.913Z,10.50
2024-03-12T23:55:49.074Z,10.50
2024-03-12T23:58:16.646Z,10.50
